< < Back
Terminal Aerodrome Forecast


Current Version              Previous Versions:   1  2  3  4  5  6  7  8  9  

Terminal Aerodrome Forecast

779
FTUS44 KBMX 222300
TAFTCL
TAF
KTCL 222320Z 2300/2324 32004KT P6SM SCT025
     FM230300 34004KT P6SM SKC
     FM231200 03004KT P6SM SKC=



Latest METAR

274
SAUS70 KWBC 231100 RRC
MTRTCL
METAR KTCL 231053Z AUTO 35004KT 7SM CLR 13/12 A2995 RMK AO2 SLP141 P0001
T01330122


USA.gov is the U.S. government's official web portal to all federal, state and local government web resources and services.